createdAt,value
2023-06-13T00:01:10.033Z,18.58
2023-06-13T00:03:38.245Z,18.60
2023-06-13T00:06:04.963Z,18.67
2023-06-13T00:08:32.711Z,18.64
2023-06-13T00:11:00.227Z,18.78
2023-06-13T00:13:26.915Z,18.56
2023-06-13T00:15:57.390Z,18.67
2023-06-13T00:18:24.367Z,18.48
2023-06-13T00:20:56.126Z,18.43
2023-06-13T00:23:23.696Z,18.43
2023-06-13T00:25:50.868Z,18.48
2023-06-13T00:28:17.515Z,18.39
2023-06-13T00:30:45.078Z,18.30
2023-06-13T00:33:17.499Z,18.20
2023-06-13T00:35:46.458Z,18.20
2023-06-13T00:38:13.448Z,18.23
2023-06-13T00:40:41.180Z,18.24
2023-06-13T00:43:08.299Z,18.12
2023-06-13T00:45:35.824Z,18.08
2023-06-13T00:48:07.144Z,18.00
2023-06-13T00:50:41.494Z,17.96
2023-06-13T00:53:17.409Z,17.84
2023-06-13T00:55:46.804Z,17.67
2023-06-13T00:58:14.628Z,17.57
2023-06-13T01:00:41.667Z,17.53
2023-06-13T01:03:10.095Z,17.48
2023-06-13T01:05:39.748Z,17.48
2023-06-13T01:08:10.906Z,17.49
2023-06-13T01:10:41.142Z,17.55
2023-06-13T01:13:31.950Z,17.44
2023-06-13T01:16:07.176Z,17.36
2023-06-13T01:18:36.265Z,17.20
2023-06-13T01:21:05.932Z,17.12
2023-06-13T01:23:44.579Z,17.13
2023-06-13T01:26:23.453Z,17.21
2023-06-13T01:28:53.050Z,17.14
2023-06-13T01:31:23.805Z,17.09
2023-06-13T01:33:52.163Z,17.07
2023-06-13T01:36:19.511Z,17.03
2023-06-13T01:38:47.134Z,16.96
2023-06-13T01:41:13.645Z,16.80
2023-06-13T01:43:40.242Z,16.84
2023-06-13T01:46:14.149Z,16.99
2023-06-13T01:49:18.386Z,16.93
2023-06-13T01:52:08.879Z,16.89
2023-06-13T01:54:42.677Z,16.93
2023-06-13T01:57:10.784Z,16.82
2023-06-13T01:59:39.318Z,16.85
2023-06-13T02:02:06.180Z,16.87
2023-06-13T02:04:41.174Z,16.76
2023-06-13T02:07:07.875Z,16.72
2023-06-13T02:09:34.335Z,16.61
2023-06-13T02:12:01.081Z,16.61
2023-06-13T02:14:33.706Z,16.53
2023-06-13T02:17:01.869Z,16.60
2023-06-13T02:19:31.213Z,16.53
2023-06-13T02:21:57.758Z,16.57
2023-06-13T02:24:24.333Z,16.55
2023-06-13T02:26:51.954Z,16.41
2023-06-13T02:29:19.526Z,16.31
2023-06-13T02:31:46.858Z,16.25
2023-06-13T02:34:13.772Z,16.24
2023-06-13T02:36:40.290Z,16.13
2023-06-13T02:39:08.676Z,15.99
2023-06-13T02:41:35.259Z,15.96
2023-06-13T02:44:02.619Z,15.92
2023-06-13T02:46:29.234Z,15.89
2023-06-13T02:48:56.282Z,15.78
2023-06-13T02:51:22.827Z,15.86
2023-06-13T02:53:49.322Z,15.70
2023-06-13T02:56:16.189Z,15.61
2023-06-13T02:58:42.735Z,15.65
2023-06-13T03:01:09.992Z,15.51
2023-06-13T03:03:36.704Z,15.46
2023-06-13T03:06:03.983Z,15.43
2023-06-13T03:08:36.437Z,15.43
2023-06-13T03:11:03.384Z,15.33
2023-06-13T03:13:30.518Z,15.34
2023-06-13T03:15:58.627Z,15.28
2023-06-13T03:18:27.511Z,15.18
2023-06-13T03:20:55.504Z,15.17
2023-06-13T03:23:23.745Z,15.12
2023-06-13T03:25:51.544Z,15.06
2023-06-13T03:28:18.334Z,15.07
2023-06-13T03:30:48.598Z,15.01
2023-06-13T03:33:15.126Z,15.06
2023-06-13T03:35:45.362Z,15.08
2023-06-13T03:38:14.312Z,15.07
2023-06-13T03:40:40.807Z,14.95
2023-06-13T03:43:07.272Z,14.98
2023-06-13T03:45:34.104Z,14.94
2023-06-13T03:48:01.527Z,14.93
2023-06-13T03:50:28.411Z,15.01
2023-06-13T03:52:54.983Z,14.98
2023-06-13T03:55:25.165Z,15.00
2023-06-13T03:57:51.708Z,14.96
2023-06-13T04:00:18.782Z,14.94
2023-06-13T04:02:46.652Z,14.89
2023-06-13T04:05:14.441Z,14.86
2023-06-13T04:07:41.536Z,15.00
2023-06-13T04:10:08.229Z,14.99
2023-06-13T04:12:36.482Z,14.96
2023-06-13T04:15:03.508Z,14.97
2023-06-13T04:17:30.502Z,14.98
2023-06-13T04:19:57.364Z,14.95
2023-06-13T04:22:23.929Z,14.95
2023-06-13T04:24:52.211Z,14.99
2023-06-13T04:27:20.776Z,14.98
2023-06-13T04:29:49.971Z,14.95
2023-06-13T04:32:19.121Z,15.01
2023-06-13T04:34:46.572Z,15.09
2023-06-13T04:37:14.407Z,15.10
2023-06-13T04:39:40.983Z,15.10
2023-06-13T04:42:07.635Z,15.14
2023-06-13T04:44:34.231Z,15.15
2023-06-13T04:47:02.947Z,15.17
2023-06-13T04:49:30.107Z,15.20
2023-06-13T04:51:56.717Z,15.27
2023-06-13T04:54:23.373Z,15.35
2023-06-13T04:56:50.229Z,15.40
2023-06-13T04:59:16.924Z,15.43
2023-06-13T05:01:44.624Z,15.54
2023-06-13T05:04:11.656Z,15.55
2023-06-13T05:06:38.880Z,15.82
2023-06-13T05:09:07.446Z,15.78
2023-06-13T05:11:34.221Z,15.82
2023-06-13T05:14:00.807Z,15.89
2023-06-13T05:16:31.218Z,16.07
2023-06-13T05:18:59.419Z,16.07
2023-06-13T05:21:26.293Z,16.20
2023-06-13T05:23:53.288Z,16.19
2023-06-13T05:26:19.838Z,16.33
2023-06-13T05:28:46.315Z,16.32
2023-06-13T05:31:14.362Z,16.46
2023-06-13T05:33:41.288Z,16.41
2023-06-13T05:36:07.872Z,16.65
2023-06-13T05:38:38.148Z,16.91
2023-06-13T05:41:04.981Z,17.15
2023-06-13T05:43:31.967Z,17.40
2023-06-13T05:45:58.700Z,17.78
2023-06-13T05:48:25.410Z,17.87
2023-06-13T05:50:52.128Z,18.02
2023-06-13T05:53:18.625Z,18.05
2023-06-13T05:55:45.639Z,18.00
2023-06-13T05:58:12.450Z,18.15
2023-06-13T06:00:38.894Z,18.42
2023-06-13T06:03:06.535Z,18.55
2023-06-13T06:05:33.396Z,18.52
2023-06-13T06:08:00.122Z,18.68
2023-06-13T06:10:26.652Z,18.71
2023-06-13T06:12:53.101Z,18.85
2023-06-13T06:15:19.874Z,19.18
2023-06-13T06:17:46.569Z,19.22
2023-06-13T06:20:13.796Z,19.47
2023-06-13T06:22:40.755Z,19.59
2023-06-13T06:25:09.872Z,19.54
2023-06-13T06:27:36.599Z,19.60
2023-06-13T06:30:06.038Z,19.92
2023-06-13T06:32:33.203Z,19.79
2023-06-13T06:34:59.693Z,19.80
2023-06-13T06:37:27.009Z,19.96
2023-06-13T06:39:53.644Z,20.12
2023-06-13T06:42:20.144Z,20.33
2023-06-13T06:44:58.838Z,20.05
2023-06-13T06:47:25.457Z,20.22
2023-06-13T06:49:51.983Z,20.41
2023-06-13T06:52:18.451Z,20.73
2023-06-13T06:54:44.897Z,21.04
2023-06-13T06:57:11.570Z,21.26
2023-06-13T06:59:38.341Z,21.37
2023-06-13T07:02:06.041Z,20.92
2023-06-13T07:04:33.354Z,20.77
2023-06-13T07:06:59.868Z,21.09
2023-06-13T07:09:26.405Z,21.10
2023-06-13T07:11:57.890Z,20.84
2023-06-13T07:14:26.617Z,21.26
2023-06-13T07:16:56.564Z,21.72
2023-06-13T07:19:24.377Z,22.12
2023-06-13T07:21:51.029Z,22.56
2023-06-13T07:24:17.469Z,22.99
2023-06-13T07:26:44.005Z,23.33
2023-06-13T07:29:10.510Z,23.09
2023-06-13T07:31:37.597Z,22.56
2023-06-13T07:34:08.124Z,22.42
2023-06-13T07:36:41.983Z,22.49
2023-06-13T07:39:14.948Z,22.32
2023-06-13T07:41:41.528Z,22.30
2023-06-13T07:44:07.985Z,22.27
2023-06-13T07:46:34.600Z,22.28
2023-06-13T07:49:02.134Z,22.08
2023-06-13T07:51:29.599Z,22.33
2023-06-13T07:53:56.386Z,22.57
2023-06-13T07:56:23.164Z,23.21
2023-06-13T07:58:49.714Z,23.31
2023-06-13T08:01:17.029Z,23.33
2023-06-13T08:03:45.502Z,23.04
2023-06-13T08:06:12.207Z,23.20
2023-06-13T08:08:39.237Z,23.61
2023-06-13T08:11:05.942Z,23.73
2023-06-13T08:13:32.486Z,23.64
2023-06-13T08:15:59.310Z,23.10
2023-06-13T08:18:26.250Z,22.70
2023-06-13T08:20:52.970Z,22.81
2023-06-13T08:23:19.486Z,23.03
2023-06-13T08:25:46.130Z,23.02
2023-06-13T08:28:14.358Z,23.29
2023-06-13T08:30:43.489Z,23.24
2023-06-13T08:33:10.338Z,23.44
2023-06-13T08:35:38.062Z,23.43
2023-06-13T08:38:04.986Z,23.33
2023-06-13T08:40:31.833Z,23.16
2023-06-13T08:43:02.073Z,23.09
2023-06-13T08:45:29.370Z,23.36
2023-06-13T08:47:57.287Z,23.29
2023-06-13T08:50:27.432Z,23.36
2023-06-13T08:52:56.658Z,23.73
2023-06-13T08:55:58.593Z,23.97
2023-06-13T08:58:15.178Z,23.83
2023-06-13T09:00:42.004Z,24.05
2023-06-13T09:03:13.483Z,24.14
2023-06-13T09:05:41.385Z,24.50
2023-06-13T09:08:29.366Z,24.60
2023-06-13T09:10:57.484Z,24.54
2023-06-13T09:13:25.496Z,24.58
2023-06-13T09:15:52.239Z,24.99
2023-06-13T09:18:20.098Z,24.82
2023-06-13T09:20:46.745Z,25.21
2023-06-13T09:23:17.149Z,25.18
2023-06-13T09:25:46.723Z,25.11
2023-06-13T09:28:33.527Z,25.30
2023-06-13T09:31:00.256Z,25.28
2023-06-13T09:33:27.162Z,25.45
2023-06-13T09:35:54.181Z,25.77
2023-06-13T09:38:24.366Z,25.86
2023-06-13T09:40:56.654Z,26.13
2023-06-13T09:43:24.678Z,26.14
2023-06-13T09:45:52.423Z,26.20
2023-06-13T09:48:19.574Z,26.02
2023-06-13T09:50:46.573Z,26.07
2023-06-13T09:53:13.430Z,26.43
2023-06-13T09:55:40.194Z,26.12
2023-06-13T09:58:22.396Z,26.43
2023-06-13T10:00:59.985Z,26.84
2023-06-13T10:03:28.539Z,26.95
2023-06-13T10:05:55.996Z,27.01
2023-06-13T10:08:23.107Z,26.89
2023-06-13T10:10:50.008Z,26.86
2023-06-13T10:13:22.865Z,27.11
2023-06-13T10:15:53.059Z,27.29
2023-06-13T10:18:26.075Z,27.38
2023-06-13T10:20:56.938Z,27.26
2023-06-13T10:23:27.838Z,27.11
2023-06-13T10:25:59.952Z,27.17
2023-06-13T10:28:46.184Z,27.06
2023-06-13T10:31:32.297Z,27.09
2023-06-13T10:34:26.878Z,27.59
2023-06-13T10:37:21.096Z,27.85
2023-06-13T10:40:06.061Z,27.74
2023-06-13T10:42:41.879Z,28.09
2023-06-13T10:45:16.287Z,28.36
2023-06-13T10:47:42.774Z,28.58
2023-06-13T10:50:09.668Z,28.30
2023-06-13T10:52:36.396Z,27.96
2023-06-13T10:55:03.372Z,28.07
2023-06-13T10:57:51.242Z,27.97
2023-06-13T11:00:30.324Z,27.84
2023-06-13T11:03:08.621Z,28.03
2023-06-13T11:05:42.980Z,28.19
2023-06-13T11:08:21.871Z,28.53
2023-06-13T11:10:50.403Z,28.04
2023-06-13T11:13:24.936Z,28.52
2023-06-13T11:15:57.175Z,28.73
2023-06-13T11:18:23.804Z,28.18
2023-06-13T11:20:51.021Z,28.36
2023-06-13T11:23:19.443Z,28.26
2023-06-13T11:25:53.535Z,28.40
2023-06-13T11:28:20.140Z,28.62
2023-06-13T11:30:48.646Z,28.95
2023-06-13T11:33:17.273Z,28.97
2023-06-13T11:35:50.856Z,29.09
2023-06-13T11:38:38.645Z,29.35
2023-06-13T11:41:06.091Z,29.30
2023-06-13T11:43:33.932Z,28.71
2023-06-13T11:46:02.793Z,28.84
2023-06-13T11:48:42.496Z,28.78
2023-06-13T11:51:16.555Z,28.49
2023-06-13T11:54:00.914Z,28.38
2023-06-13T11:56:29.166Z,28.72
2023-06-13T11:58:57.524Z,28.53
2023-06-13T12:01:29.070Z,28.87
2023-06-13T12:03:59.541Z,29.26
2023-06-13T12:06:27.039Z,29.43
2023-06-13T12:08:53.615Z,29.71
2023-06-13T12:11:26.343Z,29.71
2023-06-13T12:13:59.346Z,29.47
2023-06-13T12:16:29.060Z,29.31
2023-06-13T12:18:55.847Z,29.70
2023-06-13T12:21:36.136Z,29.63
2023-06-13T12:24:05.099Z,29.03
2023-06-13T12:26:34.808Z,29.11
2023-06-13T12:29:03.867Z,29.47
2023-06-13T12:31:37.096Z,29.46
2023-06-13T12:34:10.650Z,29.60
2023-06-13T12:36:47.799Z,29.18
2023-06-13T12:39:17.606Z,29.27
2023-06-13T12:41:46.985Z,28.74
2023-06-13T12:44:13.711Z,28.32
2023-06-13T12:46:40.390Z,28.58
2023-06-13T12:49:15.080Z,29.12
2023-06-13T12:51:46.440Z,29.56
2023-06-13T12:54:14.426Z,29.39
2023-06-13T12:56:50.706Z,29.50
2023-06-13T12:59:17.431Z,29.45
2023-06-13T13:01:44.150Z,29.63
2023-06-13T13:04:11.384Z,29.30
2023-06-13T13:06:41.645Z,29.50
2023-06-13T13:09:08.274Z,29.55
2023-06-13T13:11:34.823Z,28.82
2023-06-13T13:14:01.932Z,29.28
2023-06-13T13:16:28.443Z,29.23
2023-06-13T13:18:54.884Z,29.21
2023-06-13T13:21:21.405Z,29.29
2023-06-13T13:23:47.889Z,29.16
2023-06-13T13:26:14.481Z,29.22
2023-06-13T13:28:40.936Z,29.51
2023-06-13T13:31:07.507Z,29.49
2023-06-13T13:33:33.973Z,29.55
2023-06-13T13:36:00.520Z,29.02
2023-06-13T13:38:27.335Z,28.09
2023-06-13T13:40:55.093Z,27.65
2023-06-13T13:43:21.667Z,28.11
2023-06-13T13:45:48.157Z,27.75
2023-06-13T13:48:15.573Z,27.46
2023-06-13T13:50:42.562Z,27.61
2023-06-13T13:53:10.612Z,28.14
2023-06-13T13:55:37.213Z,28.31
2023-06-13T13:58:05.347Z,28.70
2023-06-13T14:00:32.588Z,28.95
2023-06-13T14:02:59.376Z,28.62
2023-06-13T14:05:26.012Z,27.98
2023-06-13T14:07:52.478Z,28.11
2023-06-13T14:10:19.105Z,28.22
2023-06-13T14:12:45.813Z,28.69
2023-06-13T14:15:12.390Z,28.80
2023-06-13T14:17:40.142Z,28.71
2023-06-13T14:20:07.607Z,28.69
2023-06-13T14:22:34.071Z,29.01
2023-06-13T14:25:00.870Z,28.96
2023-06-13T14:27:27.316Z,28.55
2023-06-13T14:29:58.984Z,28.22
2023-06-13T14:32:31.781Z,28.14
2023-06-13T14:34:58.399Z,28.40
2023-06-13T14:37:27.228Z,28.65
2023-06-13T14:39:53.662Z,28.86
2023-06-13T14:42:20.179Z,28.45
2023-06-13T14:44:47.039Z,28.69
2023-06-13T14:47:16.118Z,28.77
2023-06-13T14:49:42.934Z,29.09
2023-06-13T14:52:09.977Z,29.47
2023-06-13T14:54:36.464Z,29.48
2023-06-13T14:57:03.380Z,29.53
2023-06-13T14:59:31.223Z,29.41
2023-06-13T15:01:59.525Z,28.96
2023-06-13T15:04:27.505Z,28.58
2023-06-13T15:06:55.870Z,28.63
2023-06-13T15:09:22.499Z,28.89
2023-06-13T15:11:49.193Z,28.95
2023-06-13T15:14:15.769Z,28.93
2023-06-13T15:16:42.668Z,29.06
2023-06-13T15:19:09.193Z,28.80
2023-06-13T15:21:36.157Z,28.31
2023-06-13T15:24:04.023Z,28.70
2023-06-13T15:26:31.027Z,28.25
2023-06-13T15:28:58.237Z,27.74
2023-06-13T15:31:24.818Z,27.50
2023-06-13T15:33:51.320Z,27.37
2023-06-13T15:36:17.800Z,27.50
2023-06-13T15:38:44.273Z,27.75
2023-06-13T15:41:11.060Z,27.66
2023-06-13T15:43:37.509Z,27.78
2023-06-13T15:46:03.987Z,27.87
2023-06-13T15:48:31.168Z,27.87
2023-06-13T15:50:57.638Z,27.89
2023-06-13T15:53:24.126Z,27.69
2023-06-13T15:55:50.698Z,27.81
2023-06-13T15:58:17.212Z,28.08
2023-06-13T16:00:43.726Z,28.08
2023-06-13T16:03:10.610Z,28.06
2023-06-13T16:05:37.322Z,27.73
2023-06-13T16:08:04.243Z,27.99
2023-06-13T16:10:31.104Z,27.88
2023-06-13T16:12:57.654Z,27.79
2023-06-13T16:15:25.248Z,27.69
2023-06-13T16:17:52.330Z,27.87
2023-06-13T16:20:18.933Z,27.88
2023-06-13T16:22:45.507Z,27.95
2023-06-13T16:25:12.010Z,28.19
2023-06-13T16:27:38.505Z,27.79
2023-06-13T16:30:06.686Z,27.79
2023-06-13T16:32:33.821Z,27.62
2023-06-13T16:35:01.927Z,27.71
2023-06-13T16:37:29.216Z,27.72
2023-06-13T16:39:56.105Z,27.44
2023-06-13T16:42:22.658Z,27.60
2023-06-13T16:44:49.105Z,27.55
2023-06-13T16:47:15.588Z,27.49
2023-06-13T16:49:42.009Z,27.37
2023-06-13T16:52:08.707Z,27.21
2023-06-13T16:54:36.480Z,27.20
2023-06-13T16:57:03.378Z,27.19
2023-06-13T16:59:30.868Z,27.22
2023-06-13T17:01:57.768Z,27.25
2023-06-13T17:04:24.472Z,27.24
2023-06-13T17:06:51.529Z,27.37
2023-06-13T17:09:19.695Z,27.42
2023-06-13T17:11:46.266Z,27.30
2023-06-13T17:14:12.692Z,27.21
2023-06-13T17:16:39.186Z,27.20
2023-06-13T17:19:05.710Z,27.29
2023-06-13T17:21:32.577Z,27.04
2023-06-13T17:23:59.973Z,27.03
2023-06-13T17:26:27.382Z,27.12
2023-06-13T17:28:53.883Z,27.16
2023-06-13T17:31:20.379Z,27.24
2023-06-13T17:33:51.082Z,27.03
2023-06-13T17:36:18.799Z,26.84
2023-06-13T17:38:45.496Z,26.84
2023-06-13T17:41:12.956Z,26.66
2023-06-13T17:43:39.432Z,26.49
2023-06-13T17:46:05.877Z,26.44
2023-06-13T17:48:32.429Z,26.46
2023-06-13T17:51:01.187Z,26.33
2023-06-13T17:53:27.628Z,26.19
2023-06-13T17:55:54.058Z,26.07
2023-06-13T17:58:20.503Z,25.95
2023-06-13T18:00:47.294Z,25.89
2023-06-13T18:03:13.957Z,25.63
2023-06-13T18:05:40.644Z,25.51
2023-06-13T18:08:07.250Z,25.39
2023-06-13T18:10:35.864Z,25.37
2023-06-13T18:13:02.957Z,25.24
2023-06-13T18:15:29.609Z,25.22
2023-06-13T18:17:57.024Z,25.15
2023-06-13T18:20:23.757Z,25.04
2023-06-13T18:22:50.569Z,24.92
2023-06-13T18:25:18.838Z,24.75
2023-06-13T18:27:50.109Z,24.61
2023-06-13T18:30:17.445Z,24.51
2023-06-13T18:32:44.011Z,24.41
2023-06-13T18:35:11.046Z,24.40
2023-06-13T18:37:39.088Z,24.34
2023-06-13T18:40:07.603Z,24.21
2023-06-13T18:42:34.325Z,24.28
2023-06-13T18:45:01.070Z,24.19
2023-06-13T18:47:27.833Z,24.08
2023-06-13T18:49:54.318Z,23.97
2023-06-13T18:52:20.785Z,23.88
2023-06-13T18:54:47.759Z,23.79
2023-06-13T18:57:14.275Z,23.70
2023-06-13T18:59:44.022Z,23.51
2023-06-13T19:02:10.560Z,23.32
2023-06-13T19:04:40.043Z,23.26
2023-06-13T19:07:07.684Z,23.37
2023-06-13T19:09:34.235Z,23.19
2023-06-13T19:12:00.705Z,23.11
2023-06-13T19:14:27.556Z,22.99
2023-06-13T19:16:54.012Z,22.98
2023-06-13T19:19:20.525Z,22.81
2023-06-13T19:21:47.559Z,22.85
2023-06-13T19:24:14.115Z,22.68
2023-06-13T19:26:41.803Z,22.60
2023-06-13T19:29:11.822Z,22.49
2023-06-13T19:31:38.292Z,22.45
2023-06-13T19:34:05.185Z,22.39
2023-06-13T19:36:31.782Z,22.29
2023-06-13T19:38:58.990Z,22.25
2023-06-13T19:41:25.462Z,22.14
2023-06-13T19:43:51.980Z,22.04
2023-06-13T19:46:18.523Z,21.94
2023-06-13T19:48:45.063Z,21.88
2023-06-13T19:51:17.957Z,21.74
2023-06-13T19:53:46.376Z,21.64
2023-06-13T19:56:13.292Z,21.50
2023-06-13T19:58:40.714Z,21.44
2023-06-13T20:01:07.246Z,21.36
2023-06-13T20:03:34.031Z,21.33
2023-06-13T20:06:00.603Z,21.31
2023-06-13T20:08:27.292Z,21.27
2023-06-13T20:10:54.085Z,21.24
2023-06-13T20:13:21.047Z,21.04
2023-06-13T20:15:47.528Z,21.00
2023-06-13T20:18:14.242Z,20.92
2023-06-13T20:20:40.837Z,20.86
2023-06-13T20:23:07.491Z,20.81
2023-06-13T20:25:34.137Z,20.67
2023-06-13T20:28:00.579Z,20.70
2023-06-13T20:30:31.759Z,20.58
2023-06-13T20:32:58.620Z,20.53
2023-06-13T20:35:25.121Z,20.48
2023-06-13T20:37:51.531Z,20.54
2023-06-13T20:40:18.549Z,20.43
2023-06-13T20:42:46.869Z,20.26
2023-06-13T20:45:15.710Z,20.25
2023-06-13T20:47:42.774Z,20.11
2023-06-13T20:50:09.607Z,20.12
2023-06-13T20:52:37.457Z,19.97
2023-06-13T20:55:05.598Z,20.03
2023-06-13T20:57:35.425Z,19.96
2023-06-13T21:00:23.191Z,19.89
2023-06-13T21:02:59.406Z,19.85
2023-06-13T21:05:27.531Z,19.74
2023-06-13T21:07:58.622Z,19.75
2023-06-13T21:10:26.498Z,19.66
2023-06-13T21:12:54.209Z,19.63
2023-06-13T21:15:22.732Z,19.53
2023-06-13T21:17:51.641Z,19.59
2023-06-13T21:20:20.730Z,19.47
2023-06-13T21:22:47.828Z,19.40
2023-06-13T21:25:14.735Z,19.30
2023-06-13T21:27:41.752Z,19.27
2023-06-13T21:30:12.261Z,19.35
2023-06-13T21:32:39.167Z,19.39
2023-06-13T21:35:06.483Z,19.29
2023-06-13T21:37:35.260Z,19.21
2023-06-13T21:40:08.890Z,19.15
2023-06-13T21:42:36.991Z,19.02
2023-06-13T21:45:05.701Z,18.93
2023-06-13T21:47:34.774Z,18.94
2023-06-13T21:50:04.814Z,18.91
2023-06-13T21:52:31.728Z,18.78
2023-06-13T21:54:58.386Z,18.76
2023-06-13T21:57:25.056Z,18.74
2023-06-13T21:59:51.634Z,18.74
2023-06-13T22:02:18.124Z,18.58
2023-06-13T22:04:44.591Z,18.49
2023-06-13T22:07:13.014Z,18.44
2023-06-13T22:09:39.800Z,18.45
2023-06-13T22:12:11.413Z,18.34
2023-06-13T22:14:37.861Z,18.26
2023-06-13T22:17:05.457Z,18.17
2023-06-13T22:19:33.084Z,18.12
2023-06-13T22:22:00.065Z,18.18
2023-06-13T22:24:27.860Z,18.21
2023-06-13T22:26:55.220Z,18.12
2023-06-13T22:29:21.998Z,18.13
2023-06-13T22:31:48.625Z,18.06
2023-06-13T22:34:15.216Z,17.90
2023-06-13T22:36:41.653Z,17.79
2023-06-13T22:39:08.120Z,17.76
2023-06-13T22:41:34.569Z,17.67
2023-06-13T22:44:01.129Z,17.61
2023-06-13T22:46:27.774Z,17.49
2023-06-13T22:48:55.048Z,17.46
2023-06-13T22:51:21.712Z,17.41
2023-06-13T22:53:48.485Z,17.33
2023-06-13T22:56:15.155Z,17.26
2023-06-13T22:58:41.704Z,17.26
2023-06-13T23:01:10.830Z,17.16
2023-06-13T23:03:37.441Z,17.28
2023-06-13T23:06:05.310Z,17.26
2023-06-13T23:08:32.120Z,17.22
2023-06-13T23:10:58.872Z,17.28
2023-06-13T23:13:25.481Z,17.16
2023-06-13T23:15:53.496Z,17.10
2023-06-13T23:18:20.213Z,17.13
2023-06-13T23:20:47.222Z,17.09
2023-06-13T23:23:14.104Z,17.01
2023-06-13T23:25:40.661Z,17.13
2023-06-13T23:28:07.264Z,17.06
2023-06-13T23:30:33.802Z,17.05
2023-06-13T23:33:01.839Z,17.05
2023-06-13T23:35:28.613Z,17.02
2023-06-13T23:37:55.289Z,16.98
2023-06-13T23:40:21.898Z,16.97
2023-06-13T23:42:48.759Z,16.88
2023-06-13T23:45:15.239Z,16.83
2023-06-13T23:47:42.046Z,16.77
2023-06-13T23:50:08.997Z,16.80
2023-06-13T23:52:36.123Z,16.89
2023-06-13T23:55:02.901Z,16.83
2023-06-13T23:57:29.488Z,16.93
2023-06-13T23:59:56.162Z,16.91
